^^
Meteo Knjazevac Station Historical Data
Daily Summary for March 13, 2021 Units:  Metric    English   Both
Daily Weekly Monthly Yearly Custom
  High: Low: Average:
Temperature: 15.7 °C 7.9 °C 10.3 °C
Dew Point: 10.4 °C 6 °C 7.5 °C
Humidity: 90% 71% 83%
Wind Speed: 8km/h 0km/h 1.6km/h
Wind Gust: 14.5km/h - -
Wind- - South
Pressure: 1014.8 hPa 1012.4 hPa -
Precipitation: 0 mm    
Historical Graphs
 
 
Tabular Data for March 13, 2021
Time Temperature Dew Point Pressure Wind Wind Speed Wind Gust Humidity Rainfall Rate (Hourly) solar Conditions
00:00 13.2 °C 8.9 °C 1014.8 hPa SSE 1.6 km/h 8 km/h 75% 0 mm 0 W/m2
00:10 13 °C 8.7 °C 1014.8 hPa SE 1.6 km/h 8 km/h 75% 0 mm 0 W/m2
00:20 12.9 °C 8.8 °C 1014.8 hPa Calm   4.8 km/h 76% 0 mm 0 W/m2
00:30 12.7 °C 8.8 °C 1014.8 hPa NNW 1.6 km/h 4.8 km/h 77% 0 mm 0 W/m2
00:40 12.5 °C 8.6 °C 1014.8 hPa Calm   4.8 km/h 77% 0 mm 0 W/m2
00:50 12.2 °C 8.5 °C 1014.8 hPa SSE 1.6 km/h 4.8 km/h 78% 0 mm 0 W/m2
01:00 12.1 °C 8.3 °C 1014.8 hPa Calm   4.8 km/h 78% 0 mm 0 W/m2
01:20 11.7 °C 8.2 °C 1014.8 hPa Calm   6.4 km/h 79% 0 mm 0 W/m2
01:30 11.6 °C 8.3 °C 1014.8 hPa Calm   3.2 km/h 80% 0 mm 0 W/m2
02:20 10.8 °C 7.7 °C 1014.4 hPa Calm   6.4 km/h 81% 0 mm 0 W/m2
02:30 10.7 °C 7.8 °C 1014.4 hPa Calm   1.6 km/h 82% 0 mm 0 W/m2
02:40 10.5 °C 7.6 °C 1014.4 hPa Calm   3.2 km/h 82% 0 mm 0 W/m2
02:50 10.3 °C 7.6 °C 1014.4 hPa West 3.2 km/h 4.8 km/h 83% 0 mm 0 W/m2
03:00 10.2 °C 7.6 °C 1014.1 hPa NNW 1.6 km/h 4.8 km/h 84% 0 mm 0 W/m2
03:10 10.1 °C 7.5 °C 1014.4 hPa Calm   4.8 km/h 84% 0 mm 0 W/m2
03:20 10 °C 7.4 °C 1014.1 hPa Calm   3.2 km/h 84% 0 mm 0 W/m2
03:30 9.9 °C 7.3 °C 1014.1 hPa Calm   3.2 km/h 84% 0 mm 0 W/m2
03:40 9.7 °C 7.1 °C 1014.1 hPa WNW 3.2 km/h 4.8 km/h 84% 0 mm 0 W/m2
03:50 9.6 °C 7.2 °C 1014.1 hPa Calm   4.8 km/h 85% 0 mm 0 W/m2
04:00 9.5 °C 7.1 °C 1014.1 hPa Calm   1.6 km/h 85% 0 mm 0 W/m2
04:10 9.2 °C 6.8 °C 1014.1 hPa Calm   3.2 km/h 85% 0 mm 0 W/m2
04:20 9.1 °C 6.7 °C 1014.1 hPa NW 1.6 km/h 3.2 km/h 85% 0 mm 0 W/m2
04:30 8.7 °C 6.5 °C 1014.1 hPa WNW 3.2 km/h 6.4 km/h 86% 0 mm 0 W/m2
04:40 8.7 °C 6.5 °C 1014.1 hPa Calm   6.4 km/h 86% 0 mm 0 W/m2
04:50 8.6 °C 6.4 °C 1014.1 hPa Calm   3.2 km/h 86% 0 mm 0 W/m2
05:00 8.5 °C 6.3 °C 1014.1 hPa Calm   3.2 km/h 86% 0 mm 0 W/m2
05:10 8.4 °C 6.2 °C 1014.1 hPa Calm   3.2 km/h 86% 0 mm 3 W/m2
05:20 8.2 °C 6 °C 1014.1 hPa WNW 1.6 km/h 4.8 km/h 86% 0 mm 8 W/m2
05:30 8.1 °C 6.2 °C 1014.1 hPa North 1.6 km/h 4.8 km/h 88% 0 mm 16 W/m2
05:40 7.9 °C 6.1 °C 1014.1 hPa WNW 1.6 km/h 4.8 km/h 88% 0 mm 27 W/m2
05:50 8 °C 6.3 °C 1013.8 hPa Calm   4.8 km/h 89% 0 mm 40 W/m2
06:00 8.1 °C 6.2 °C 1013.8 hPa Calm   3.2 km/h 88% 0 mm 58 W/m2
06:10 7.9 °C 6.1 °C 1013.8 hPa Calm   3.2 km/h 88% 0 mm 50 W/m2
06:20 7.9 °C 6.2 °C 1013.8 hPa WNW 1.6 km/h 4.8 km/h 89% 0 mm 68 W/m2
06:30 8 °C 6.3 °C 1013.8 hPa West 1.6 km/h 4.8 km/h 89% 0 mm 135 W/m2
06:40 8.2 °C 6.6 °C 1013.4 hPa NW 3.2 km/h 8 km/h 90% 0 mm 153 W/m2
06:50 8.3 °C 6.8 °C 1013.4 hPa WNW 1.6 km/h 4.8 km/h 90% 0 mm 175 W/m2
07:00 8.6 °C 7 °C 1013.1 hPa Calm   3.2 km/h 90% 0 mm 194 W/m2
07:10 8.8 °C 7.3 °C 1013.1 hPa WSW 1.6 km/h 3.2 km/h 90% 0 mm 207 W/m2
07:20 9.1 °C 7.6 °C 1013.1 hPa Calm   3.2 km/h 90% 0 mm 278 W/m2
07:30 9.6 °C 7.8 °C 1013.1 hPa Calm   3.2 km/h 89% 0 mm 308 W/m2
07:40 9.8 °C 7.9 °C 1013.1 hPa SSW 1.6 km/h 4.8 km/h 88% 0 mm 327 W/m2
07:50 10.3 °C 7.9 °C 1013.1 hPa NNE 3.2 km/h 8 km/h 85% 0 mm 372 W/m2
08:00 10.9 °C 7.8 °C 1013.1 hPa NNE 3.2 km/h 9.7 km/h 81% 0 mm 408 W/m2
08:10 11.3 °C 8.1 °C 1013.1 hPa NNE 3.2 km/h 11.3 km/h 80% 0 mm 435 W/m2
08:20 11.9 °C 8.4 °C 1012.8 hPa NNE 8 km/h 12.9 km/h 79% 0 mm 458 W/m2
08:30 12.4 °C 8.6 °C 1012.8 hPa North 8 km/h 14.5 km/h 78% 0 mm 469 W/m2
08:40 12.8 °C 8.9 °C 1012.8 hPa NNE 3.2 km/h 11.3 km/h 77% 0 mm 522 W/m2
08:50 13.6 °C 9.2 °C 1012.8 hPa NNE 4.8 km/h 12.9 km/h 75% 0 mm 577 W/m2
09:00 14.7 °C 9.7 °C 1012.8 hPa NNE 3.2 km/h 12.9 km/h 72% 0 mm 595 W/m2
09:10 15.7 °C 10.4 °C 1012.4 hPa NNE 8 km/h 11.3 km/h 71% 0 mm 662 W/m2
Knjazevac, Serbia
Compliments of Weather Underground - 2 mb